sensor_id;sensor_type;location;lat;lon;timestamp;P1;durP1;ratioP1;P2;durP2;ratioP2
34102;SDS011;20381;54.498;18.206;2023-04-25T00:02:01;3.83;;;2.67;;
34102;SDS011;20381;54.498;18.206;2023-04-25T00:04:29;2.80;;;1.70;;
34102;SDS011;20381;54.498;18.206;2023-04-25T00:06:56;3.25;;;1.82;;
34102;SDS011;20381;54.498;18.206;2023-04-25T00:09:28;2.30;;;1.57;;
34102;SDS011;20381;54.498;18.206;2023-04-25T00:11:54;2.05;;;1.67;;
34102;SDS011;20381;54.498;18.206;2023-04-25T00:14:20;3.87;;;1.55;;
34102;SDS011;20381;54.498;18.206;2023-04-25T00:16:47;2.17;;;1.62;;
34102;SDS011;20381;54.498;18.206;2023-04-25T00:19:16;1.75;;;1.32;;
34102;SDS011;20381;54.498;18.206;2023-04-25T00:21:43;2.17;;;1.35;;
34102;SDS011;20381;54.498;18.206;2023-04-25T00:24:11;1.42;;;1.30;;
34102;SDS011;20381;54.498;18.206;2023-04-25T00:26:38;1.82;;;1.30;;
34102;SDS011;20381;54.498;18.206;2023-04-25T00:29:04;1.98;;;1.57;;
34102;SDS011;20381;54.498;18.206;2023-04-25T00:31:31;2.02;;;1.20;;
34102;SDS011;20381;54.498;18.206;2023-04-25T00:33:57;2.83;;;1.40;;
34102;SDS011;20381;54.498;18.206;2023-04-25T00:36:25;1.42;;;1.15;;
34102;SDS011;20381;54.498;18.206;2023-04-25T00:41:23;2.65;;;1.80;;
34102;SDS011;20381;54.498;18.206;2023-04-25T00:43:52;2.12;;;1.67;;
34102;SDS011;20381;54.498;18.206;2023-04-25T00:46:20;4.58;;;1.62;;
34102;SDS011;20381;54.498;18.206;2023-04-25T00:48:46;1.70;;;1.30;;
34102;SDS011;20381;54.498;18.206;2023-04-25T00:51:19;4.62;;;1.42;;
34102;SDS011;20381;54.498;18.206;2023-04-25T00:53:42;1.87;;;1.50;;
34102;SDS011;20381;54.498;18.206;2023-04-25T00:56:09;1.87;;;1.35;;
34102;SDS011;20381;54.498;18.206;2023-04-25T00:58:36;2.50;;;1.75;;
34102;SDS011;20381;54.498;18.206;2023-04-25T01:01:03;1.87;;;1.30;;
34102;SDS011;20381;54.498;18.206;2023-04-25T01:03:31;2.67;;;1.60;;
34102;SDS011;20381;54.498;18.206;2023-04-25T01:06:01;4.17;;;1.92;;
34102;SDS011;20381;54.498;18.206;2023-04-25T01:08:33;1.65;;;1.55;;
34102;SDS011;20381;54.498;18.206;2023-04-25T01:10:57;2.05;;;1.60;;
34102;SDS011;20381;54.498;18.206;2023-04-25T01:13:24;3.70;;;1.95;;
34102;SDS011;20381;54.498;18.206;2023-04-25T01:15:50;2.67;;;1.95;;
34102;SDS011;20381;54.498;18.206;2023-04-25T01:18:16;3.05;;;1.72;;
34102;SDS011;20381;54.498;18.206;2023-04-25T01:20:44;5.65;;;1.87;;
34102;SDS011;20381;54.498;18.206;2023-04-25T01:23:12;3.27;;;2.30;;
34102;SDS011;20381;54.498;18.206;2023-04-25T01:25:39;3.35;;;2.12;;
34102;SDS011;20381;54.498;18.206;2023-04-25T01:28:06;2.83;;;2.10;;
34102;SDS011;20381;54.498;18.206;2023-04-25T01:30:33;2.27;;;1.85;;
34102;SDS011;20381;54.498;18.206;2023-04-25T01:33:00;1.85;;;1.65;;
34102;SDS011;20381;54.498;18.206;2023-04-25T01:35:30;2.08;;;1.70;;
34102;SDS011;20381;54.498;18.206;2023-04-25T01:37:57;2.70;;;1.82;;
34102;SDS011;20381;54.498;18.206;2023-04-25T01:40:24;2.52;;;1.80;;
34102;SDS011;20381;54.498;18.206;2023-04-25T01:42:52;2.33;;;1.82;;
34102;SDS011;20381;54.498;18.206;2023-04-25T01:45:20;4.13;;;1.90;;
34102;SDS011;20381;54.498;18.206;2023-04-25T01:47:46;2.27;;;1.80;;
34102;SDS011;20381;54.498;18.206;2023-04-25T01:50:15;2.35;;;1.95;;
34102;SDS011;20381;54.498;18.206;2023-04-25T01:52:43;4.08;;;2.05;;
34102;SDS011;20381;54.498;18.206;2023-04-25T01:55:09;2.17;;;1.98;;
34102;SDS011;20381;54.498;18.206;2023-04-25T01:57:35;2.98;;;2.00;;
34102;SDS011;20381;54.498;18.206;2023-04-25T02:00:03;5.47;;;2.37;;
34102;SDS011;20381;54.498;18.206;2023-04-25T02:02:32;2.70;;;1.98;;
34102;SDS011;20381;54.498;18.206;2023-04-25T02:04:59;2.35;;;2.15;;
34102;SDS011;20381;54.498;18.206;2023-04-25T02:07:25;2.25;;;1.90;;
34102;SDS011;20381;54.498;18.206;2023-04-25T02:12:18;1.80;;;1.70;;
34102;SDS011;20381;54.498;18.206;2023-04-25T02:14:45;2.52;;;2.05;;
34102;SDS011;20381;54.498;18.206;2023-04-25T02:17:11;2.80;;;2.10;;
34102;SDS011;20381;54.498;18.206;2023-04-25T02:22:05;5.35;;;2.05;;
34102;SDS011;20381;54.498;18.206;2023-04-25T02:24:31;3.42;;;2.47;;
34102;SDS011;20381;54.498;18.206;2023-04-25T02:26:59;2.87;;;2.58;;
34102;SDS011;20381;54.498;18.206;2023-04-25T02:29:25;2.17;;;1.95;;
34102;SDS011;20381;54.498;18.206;2023-04-25T02:31:51;2.22;;;1.85;;
34102;SDS011;20381;54.498;18.206;2023-04-25T02:34:18;3.00;;;2.35;;
34102;SDS011;20381;54.498;18.206;2023-04-25T02:36:49;2.27;;;2.08;;
34102;SDS011;20381;54.498;18.206;2023-04-25T02:39:17;2.77;;;2.35;;
34102;SDS011;20381;54.498;18.206;2023-04-25T02:41:43;3.20;;;2.90;;
34102;SDS011;20381;54.498;18.206;2023-04-25T02:44:10;2.87;;;2.67;;
34102;SDS011;20381;54.498;18.206;2023-04-25T02:46:36;3.60;;;3.30;;
34102;SDS011;20381;54.498;18.206;2023-04-25T02:49:03;2.70;;;2.50;;
34102;SDS011;20381;54.498;18.206;2023-04-25T02:51:29;4.00;;;2.55;;
34102;SDS011;20381;54.498;18.206;2023-04-25T02:53:56;3.50;;;3.20;;
34102;SDS011;20381;54.498;18.206;2023-04-25T02:56:22;3.90;;;2.30;;
34102;SDS011;20381;54.498;18.206;2023-04-25T02:58:48;2.72;;;2.52;;
34102;SDS011;20381;54.498;18.206;2023-04-25T03:01:14;3.70;;;3.22;;
34102;SDS011;20381;54.498;18.206;2023-04-25T03:03:41;2.45;;;2.10;;
34102;SDS011;20381;54.498;18.206;2023-04-25T03:06:07;3.22;;;2.92;;
34102;SDS011;20381;54.498;18.206;2023-04-25T03:08:33;2.87;;;2.67;;
34102;SDS011;20381;54.498;18.206;2023-04-25T03:10:59;6.03;;;3.50;;
34102;SDS011;20381;54.498;18.206;2023-04-25T03:13:26;5.17;;;3.03;;
34102;SDS011;20381;54.498;18.206;2023-04-25T03:15:53;3.17;;;2.87;;
34102;SDS011;20381;54.498;18.206;2023-04-25T03:18:20;3.72;;;2.50;;
34102;SDS011;20381;54.498;18.206;2023-04-25T03:20:46;6.42;;;3.30;;
34102;SDS011;20381;54.498;18.206;2023-04-25T03:23:12;3.60;;;3.20;;
34102;SDS011;20381;54.498;18.206;2023-04-25T03:25:38;3.85;;;3.15;;
34102;SDS011;20381;54.498;18.206;2023-04-25T03:28:05;3.53;;;3.23;;
34102;SDS011;20381;54.498;18.206;2023-04-25T03:30:31;3.08;;;2.77;;
34102;SDS011;20381;54.498;18.206;2023-04-25T03:32:57;4.40;;;3.37;;
34102;SDS011;20381;54.498;18.206;2023-04-25T03:35:24;4.55;;;3.52;;
34102;SDS011;20381;54.498;18.206;2023-04-25T03:37:50;3.70;;;3.30;;
34102;SDS011;20381;54.498;18.206;2023-04-25T03:40:17;4.47;;;3.55;;
34102;SDS011;20381;54.498;18.206;2023-04-25T03:42:43;3.83;;;3.30;;
34102;SDS011;20381;54.498;18.206;2023-04-25T03:45:09;3.65;;;3.33;;
34102;SDS011;20381;54.498;18.206;2023-04-25T03:47:36;3.77;;;3.45;;
34102;SDS011;20381;54.498;18.206;2023-04-25T03:50:03;4.05;;;3.67;;
34102;SDS011;20381;54.498;18.206;2023-04-25T03:54:56;4.03;;;3.62;;
34102;SDS011;20381;54.498;18.206;2023-04-25T03:57:22;6.22;;;3.37;;
34102;SDS011;20381;54.498;18.206;2023-04-25T03:59:48;3.72;;;3.40;;
34102;SDS011;20381;54.498;18.206;2023-04-25T04:02:15;3.30;;;2.80;;
34102;SDS011;20381;54.498;18.206;2023-04-25T04:04:42;4.00;;;3.52;;
34102;SDS011;20381;54.498;18.206;2023-04-25T04:07:09;4.10;;;3.67;;
34102;SDS011;20381;54.498;18.206;2023-04-25T04:09:36;3.45;;;3.15;;
34102;SDS011;20381;54.498;18.206;2023-04-25T04:12:02;5.33;;;3.62;;
34102;SDS011;20381;54.498;18.206;2023-04-25T04:14:29;3.92;;;3.47;;
34102;SDS011;20381;54.498;18.206;2023-04-25T04:16:55;3.58;;;3.20;;
34102;SDS011;20381;54.498;18.206;2023-04-25T04:19:21;4.53;;;3.30;;
34102;SDS011;20381;54.498;18.206;2023-04-25T04:21:48;4.30;;;3.40;;
34102;SDS011;20381;54.498;18.206;2023-04-25T04:24:14;3.65;;;3.35;;
34102;SDS011;20381;54.498;18.206;2023-04-25T04:26:42;5.55;;;3.50;;
34102;SDS011;20381;54.498;18.206;2023-04-25T04:29:10;3.85;;;3.47;;
34102;SDS011;20381;54.498;18.206;2023-04-25T04:31:38;4.60;;;3.60;;
34102;SDS011;20381;54.498;18.206;2023-04-25T04:34:05;4.00;;;3.58;;
34102;SDS011;20381;54.498;18.206;2023-04-25T04:36:34;4.25;;;3.85;;
34102;SDS011;20381;54.498;18.206;2023-04-25T04:39:04;3.42;;;3.10;;
34102;SDS011;20381;54.498;18.206;2023-04-25T04:41:31;3.67;;;3.27;;
34102;SDS011;20381;54.498;18.206;2023-04-25T04:44:01;3.47;;;3.17;;
34102;SDS011;20381;54.498;18.206;2023-04-25T04:46:28;5.00;;;3.72;;
34102;SDS011;20381;54.498;18.206;2023-04-25T04:48:55;4.92;;;4.42;;
34102;SDS011;20381;54.498;18.206;2023-04-25T04:51:22;3.90;;;3.50;;
34102;SDS011;20381;54.498;18.206;2023-04-25T04:53:48;7.62;;;3.37;;
34102;SDS011;20381;54.498;18.206;2023-04-25T04:56:14;4.78;;;3.85;;
34102;SDS011;20381;54.498;18.206;2023-04-25T04:58:41;4.08;;;3.33;;
34102;SDS011;20381;54.498;18.206;2023-04-25T05:01:07;5.47;;;4.10;;
34102;SDS011;20381;54.498;18.206;2023-04-25T05:03:33;4.30;;;3.70;;
34102;SDS011;20381;54.498;18.206;2023-04-25T05:05:59;6.58;;;3.72;;
34102;SDS011;20381;54.498;18.206;2023-04-25T05:08:26;7.47;;;3.98;;
34102;SDS011;20381;54.498;18.206;2023-04-25T05:10:55;5.72;;;3.85;;
34102;SDS011;20381;54.498;18.206;2023-04-25T05:13:23;4.67;;;3.45;;
34102;SDS011;20381;54.498;18.206;2023-04-25T05:15:49;5.95;;;4.40;;
34102;SDS011;20381;54.498;18.206;2023-04-25T05:18:20;8.95;;;4.85;;
34102;SDS011;20381;54.498;18.206;2023-04-25T05:20:45;8.88;;;4.00;;
34102;SDS011;20381;54.498;18.206;2023-04-25T05:23:12;4.87;;;3.22;;
34102;SDS011;20381;54.498;18.206;2023-04-25T05:25:38;5.10;;;2.90;;
34102;SDS011;20381;54.498;18.206;2023-04-25T05:28:04;4.80;;;2.90;;
34102;SDS011;20381;54.498;18.206;2023-04-25T05:30:31;4.30;;;2.70;;
34102;SDS011;20381;54.498;18.206;2023-04-25T05:32:57;4.37;;;2.80;;
34102;SDS011;20381;54.498;18.206;2023-04-25T05:35:24;8.00;;;2.90;;
34102;SDS011;20381;54.498;18.206;2023-04-25T05:37:50;3.60;;;2.90;;
34102;SDS011;20381;54.498;18.206;2023-04-25T05:40:16;3.95;;;3.02;;
34102;SDS011;20381;54.498;18.206;2023-04-25T05:42:43;6.35;;;2.90;;
34102;SDS011;20381;54.498;18.206;2023-04-25T05:45:10;4.15;;;3.00;;
34102;SDS011;20381;54.498;18.206;2023-04-25T05:47:36;6.12;;;3.12;;
34102;SDS011;20381;54.498;18.206;2023-04-25T05:50:02;6.95;;;3.10;;
34102;SDS011;20381;54.498;18.206;2023-04-25T05:52:29;5.37;;;2.93;;
34102;SDS011;20381;54.498;18.206;2023-04-25T05:54:55;4.20;;;2.98;;
34102;SDS011;20381;54.498;18.206;2023-04-25T05:57:22;4.37;;;2.65;;
34102;SDS011;20381;54.498;18.206;2023-04-25T05:59:50;3.33;;;2.52;;
34102;SDS011;20381;54.498;18.206;2023-04-25T06:02:18;5.25;;;3.72;;
34102;SDS011;20381;54.498;18.206;2023-04-25T06:04:46;4.75;;;2.92;;
34102;SDS011;20381;54.498;18.206;2023-04-25T06:09:39;5.20;;;2.67;;
34102;SDS011;20381;54.498;18.206;2023-04-25T06:12:06;3.83;;;2.87;;
34102;SDS011;20381;54.498;18.206;2023-04-25T06:14:33;3.47;;;2.45;;
34102;SDS011;20381;54.498;18.206;2023-04-25T06:19:28;3.92;;;2.52;;
34102;SDS011;20381;54.498;18.206;2023-04-25T06:21:54;4.22;;;2.55;;
34102;SDS011;20381;54.498;18.206;2023-04-25T06:24:20;3.05;;;2.50;;
34102;SDS011;20381;54.498;18.206;2023-04-25T06:26:46;4.90;;;2.83;;
34102;SDS011;20381;54.498;18.206;2023-04-25T06:29:13;3.22;;;1.98;;
34102;SDS011;20381;54.498;18.206;2023-04-25T06:31:39;3.30;;;2.30;;
34102;SDS011;20381;54.498;18.206;2023-04-25T06:34:05;5.50;;;2.20;;
34102;SDS011;20381;54.498;18.206;2023-04-25T06:36:32;2.77;;;1.62;;
34102;SDS011;20381;54.498;18.206;2023-04-25T06:38:58;2.65;;;1.67;;
34102;SDS011;20381;54.498;18.206;2023-04-25T06:41:24;6.05;;;2.42;;
34102;SDS011;20381;54.498;18.206;2023-04-25T06:43:51;2.72;;;1.90;;
34102;SDS011;20381;54.498;18.206;2023-04-25T06:46:18;2.08;;;1.70;;
34102;SDS011;20381;54.498;18.206;2023-04-25T06:48:44;2.95;;;1.67;;
34102;SDS011;20381;54.498;18.206;2023-04-25T06:51:11;3.37;;;1.70;;
34102;SDS011;20381;54.498;18.206;2023-04-25T06:53:39;2.70;;;1.67;;
34102;SDS011;20381;54.498;18.206;2023-04-25T06:56:05;4.60;;;1.35;;
34102;SDS011;20381;54.498;18.206;2023-04-25T06:58:32;1.70;;;1.23;;
34102;SDS011;20381;54.498;18.206;2023-04-25T07:00:58;2.37;;;1.42;;
34102;SDS011;20381;54.498;18.206;2023-04-25T07:03:25;2.37;;;1.22;;
34102;SDS011;20381;54.498;18.206;2023-04-25T07:05:51;2.12;;;1.45;;
34102;SDS011;20381;54.498;18.206;2023-04-25T07:08:17;2.00;;;1.20;;
34102;SDS011;20381;54.498;18.206;2023-04-25T07:10:44;3.58;;;1.17;;
34102;SDS011;20381;54.498;18.206;2023-04-25T07:13:11;1.40;;;1.10;;
34102;SDS011;20381;54.498;18.206;2023-04-25T07:15:38;1.77;;;1.20;;
34102;SDS011;20381;54.498;18.206;2023-04-25T07:18:04;1.12;;;0.98;;
34102;SDS011;20381;54.498;18.206;2023-04-25T07:20:30;1.45;;;1.00;;
34102;SDS011;20381;54.498;18.206;2023-04-25T07:25:24;2.52;;;1.70;;
34102;SDS011;20381;54.498;18.206;2023-04-25T07:27:50;5.45;;;4.95;;
34102;SDS011;20381;54.498;18.206;2023-04-25T07:30:17;1.22;;;1.10;;
34102;SDS011;20381;54.498;18.206;2023-04-25T07:32:43;2.22;;;1.17;;
34102;SDS011;20381;54.498;18.206;2023-04-25T07:35:11;3.25;;;1.40;;
34102;SDS011;20381;54.498;18.206;2023-04-25T07:37:37;3.20;;;1.07;;
34102;SDS011;20381;54.498;18.206;2023-04-25T07:40:04;0.95;;;0.90;;
34102;SDS011;20381;54.498;18.206;2023-04-25T07:42:31;1.42;;;0.95;;
34102;SDS011;20381;54.498;18.206;2023-04-25T07:44:58;0.70;;;0.70;;
34102;SDS011;20381;54.498;18.206;2023-04-25T07:47:24;2.05;;;1.30;;
34102;SDS011;20381;54.498;18.206;2023-04-25T07:49:50;1.57;;;0.70;;
34102;SDS011;20381;54.498;18.206;2023-04-25T07:52:25;1.12;;;0.80;;
34102;SDS011;20381;54.498;18.206;2023-04-25T07:54:51;1.17;;;0.88;;
34102;SDS011;20381;54.498;18.206;2023-04-25T07:57:18;2.12;;;0.90;;
34102;SDS011;20381;54.498;18.206;2023-04-25T07:59:45;2.22;;;0.90;;
34102;SDS011;20381;54.498;18.206;2023-04-25T08:02:11;1.85;;;1.10;;
34102;SDS011;20381;54.498;18.206;2023-04-25T08:04:38;1.62;;;0.90;;
34102;SDS011;20381;54.498;18.206;2023-04-25T08:07:05;1.03;;;0.80;;
34102;SDS011;20381;54.498;18.206;2023-04-25T08:09:31;1.87;;;1.00;;
34102;SDS011;20381;54.498;18.206;2023-04-25T08:11:59;1.20;;;1.05;;
34102;SDS011;20381;54.498;18.206;2023-04-25T08:14:26;2.22;;;1.05;;
34102;SDS011;20381;54.498;18.206;2023-04-25T08:16:54;1.35;;;0.90;;
34102;SDS011;20381;54.498;18.206;2023-04-25T08:19:20;1.97;;;1.10;;
34102;SDS011;20381;54.498;18.206;2023-04-25T08:21:47;1.42;;;1.15;;
34102;SDS011;20381;54.498;18.206;2023-04-25T08:24:13;1.12;;;1.00;;
34102;SDS011;20381;54.498;18.206;2023-04-25T08:26:39;2.83;;;1.10;;
34102;SDS011;20381;54.498;18.206;2023-04-25T08:29:06;3.02;;;1.27;;
34102;SDS011;20381;54.498;18.206;2023-04-25T08:31:33;1.42;;;0.90;;
34102;SDS011;20381;54.498;18.206;2023-04-25T08:33:59;1.20;;;0.72;;
34102;SDS011;20381;54.498;18.206;2023-04-25T08:36:25;1.75;;;0.98;;
34102;SDS011;20381;54.498;18.206;2023-04-25T08:38:53;1.77;;;1.00;;
34102;SDS011;20381;54.498;18.206;2023-04-25T08:41:19;1.40;;;1.00;;
34102;SDS011;20381;54.498;18.206;2023-04-25T08:43:48;2.85;;;1.17;;
34102;SDS011;20381;54.498;18.206;2023-04-25T08:46:17;1.07;;;0.88;;
34102;SDS011;20381;54.498;18.206;2023-04-25T08:48:45;2.25;;;1.00;;
34102;SDS011;20381;54.498;18.206;2023-04-25T08:51:15;1.27;;;0.90;;
34102;SDS011;20381;54.498;18.206;2023-04-25T08:53:51;1.35;;;0.80;;
34102;SDS011;20381;54.498;18.206;2023-04-25T08:56:18;3.10;;;1.00;;
34102;SDS011;20381;54.498;18.206;2023-04-25T08:58:47;2.70;;;0.90;;
34102;SDS011;20381;54.498;18.206;2023-04-25T09:01:15;1.77;;;0.75;;
34102;SDS011;20381;54.498;18.206;2023-04-25T09:06:10;1.45;;;0.78;;
34102;SDS011;20381;54.498;18.206;2023-04-25T09:08:37;1.07;;;0.70;;
34102;SDS011;20381;54.498;18.206;2023-04-25T09:11:06;0.70;;;0.60;;
34102;SDS011;20381;54.498;18.206;2023-04-25T09:13:33;0.90;;;0.70;;
34102;SDS011;20381;54.498;18.206;2023-04-25T09:15:59;1.17;;;0.90;;
34102;SDS011;20381;54.498;18.206;2023-04-25T09:18:27;1.50;;;0.90;;
34102;SDS011;20381;54.498;18.206;2023-04-25T09:20:54;1.95;;;0.72;;
34102;SDS011;20381;54.498;18.206;2023-04-25T09:23:26;1.10;;;0.70;;
34102;SDS011;20381;54.498;18.206;2023-04-25T09:25:51;1.05;;;0.80;;
34102;SDS011;20381;54.498;18.206;2023-04-25T09:28:22;7.45;;;1.00;;
34102;SDS011;20381;54.498;18.206;2023-04-25T09:30:56;0.98;;;0.68;;
34102;SDS011;20381;54.498;18.206;2023-04-25T09:33:29;1.67;;;1.00;;
34102;SDS011;20381;54.498;18.206;2023-04-25T09:38:39;1.37;;;0.90;;
34102;SDS011;20381;54.498;18.206;2023-04-25T09:41:08;1.98;;;0.90;;
34102;SDS011;20381;54.498;18.206;2023-04-25T09:43:36;1.87;;;0.82;;
34102;SDS011;20381;54.498;18.206;2023-04-25T09:46:09;2.62;;;1.20;;
34102;SDS011;20381;54.498;18.206;2023-04-25T09:48:37;3.60;;;0.90;;
34102;SDS011;20381;54.498;18.206;2023-04-25T09:51:04;3.90;;;1.15;;
34102;SDS011;20381;54.498;18.206;2023-04-25T09:53:33;2.35;;;1.17;;
34102;SDS011;20381;54.498;18.206;2023-04-25T09:56:07;3.52;;;1.10;;
34102;SDS011;20381;54.498;18.206;2023-04-25T09:58:35;2.98;;;1.20;;
34102;SDS011;20381;54.498;18.206;2023-04-25T10:01:04;1.72;;;0.90;;
34102;SDS011;20381;54.498;18.206;2023-04-25T10:03:33;2.83;;;1.15;;
34102;SDS011;20381;54.498;18.206;2023-04-25T10:06:02;2.17;;;1.00;;
34102;SDS011;20381;54.498;18.206;2023-04-25T10:08:31;3.83;;;1.15;;
34102;SDS011;20381;54.498;18.206;2023-04-25T10:11:00;3.85;;;1.25;;
34102;SDS011;20381;54.498;18.206;2023-04-25T10:13:29;2.98;;;1.17;;
34102;SDS011;20381;54.498;18.206;2023-04-25T10:16:00;1.50;;;0.80;;
34102;SDS011;20381;54.498;18.206;2023-04-25T10:18:30;1.92;;;0.90;;
34102;SDS011;20381;54.498;18.206;2023-04-25T10:20:59;2.10;;;1.00;;
34102;SDS011;20381;54.498;18.206;2023-04-25T10:23:27;1.32;;;0.68;;
34102;SDS011;20381;54.498;18.206;2023-04-25T10:25:55;2.15;;;1.00;;
34102;SDS011;20381;54.498;18.206;2023-04-25T10:28:23;1.67;;;1.00;;
34102;SDS011;20381;54.498;18.206;2023-04-25T10:31:06;1.67;;;0.90;;
34102;SDS011;20381;54.498;18.206;2023-04-25T10:33:36;1.87;;;1.12;;
34102;SDS011;20381;54.498;18.206;2023-04-25T10:36:13;2.22;;;1.22;;
34102;SDS011;20381;54.498;18.206;2023-04-25T10:38:42;3.22;;;0.88;;
34102;SDS011;20381;54.498;18.206;2023-04-25T10:41:10;2.20;;;1.00;;
34102;SDS011;20381;54.498;18.206;2023-04-25T10:43:41;3.45;;;0.98;;
34102;SDS011;20381;54.498;18.206;2023-04-25T10:46:25;3.98;;;1.35;;
34102;SDS011;20381;54.498;18.206;2023-04-25T10:48:56;4.00;;;1.00;;
34102;SDS011;20381;54.498;18.206;2023-04-25T10:51:27;2.47;;;1.22;;
34102;SDS011;20381;54.498;18.206;2023-04-25T10:54:03;3.92;;;0.88;;
34102;SDS011;20381;54.498;18.206;2023-04-25T11:01:45;3.08;;;0.95;;
34102;SDS011;20381;54.498;18.206;2023-04-25T11:04:20;5.90;;;1.25;;
34102;SDS011;20381;54.498;18.206;2023-04-25T11:09:32;1.45;;;1.07;;
34102;SDS011;20381;54.498;18.206;2023-04-25T11:11:59;2.15;;;1.12;;
34102;SDS011;20381;54.498;18.206;2023-04-25T11:14:33;6.17;;;1.47;;
34102;SDS011;20381;54.498;18.206;2023-04-25T11:16:57;3.15;;;1.17;;
34102;SDS011;20381;54.498;18.206;2023-04-25T11:19:25;3.67;;;1.20;;
34102;SDS011;20381;54.498;18.206;2023-04-25T11:21:55;6.17;;;1.07;;
34102;SDS011;20381;54.498;18.206;2023-04-25T11:24:26;3.95;;;1.32;;
34102;SDS011;20381;54.498;18.206;2023-04-25T11:27:04;3.83;;;1.42;;
34102;SDS011;20381;54.498;18.206;2023-04-25T11:32:07;3.20;;;1.10;;
34102;SDS011;20381;54.498;18.206;2023-04-25T11:34:33;3.57;;;1.23;;
34102;SDS011;20381;54.498;18.206;2023-04-25T11:37:05;3.90;;;1.55;;
34102;SDS011;20381;54.498;18.206;2023-04-25T11:39:32;4.08;;;1.52;;
34102;SDS011;20381;54.498;18.206;2023-04-25T11:42:00;3.40;;;1.10;;
34102;SDS011;20381;54.498;18.206;2023-04-25T11:44:27;2.60;;;0.98;;
34102;SDS011;20381;54.498;18.206;2023-04-25T11:46:54;4.50;;;1.35;;
34102;SDS011;20381;54.498;18.206;2023-04-25T11:49:21;2.98;;;1.35;;
34102;SDS011;20381;54.498;18.206;2023-04-25T11:51:52;3.27;;;1.60;;
34102;SDS011;20381;54.498;18.206;2023-04-25T11:54:18;3.83;;;1.60;;
34102;SDS011;20381;54.498;18.206;2023-04-25T11:56:46;3.35;;;1.22;;
34102;SDS011;20381;54.498;18.206;2023-04-25T11:59:15;3.02;;;1.35;;
34102;SDS011;20381;54.498;18.206;2023-04-25T12:01:49;4.70;;;1.47;;
34102;SDS011;20381;54.498;18.206;2023-04-25T12:04:20;5.90;;;2.67;;
34102;SDS011;20381;54.498;18.206;2023-04-25T12:06:49;5.00;;;2.52;;
34102;SDS011;20381;54.498;18.206;2023-04-25T12:09:18;5.08;;;1.72;;
34102;SDS011;20381;54.498;18.206;2023-04-25T12:11:52;3.30;;;1.22;;
34102;SDS011;20381;54.498;18.206;2023-04-25T12:14:26;6.03;;;1.40;;
34102;SDS011;20381;54.498;18.206;2023-04-25T12:16:54;3.52;;;1.37;;
34102;SDS011;20381;54.498;18.206;2023-04-25T12:19:23;3.50;;;1.27;;
34102;SDS011;20381;54.498;18.206;2023-04-25T12:21:49;4.65;;;1.62;;
34102;SDS011;20381;54.498;18.206;2023-04-25T12:24:17;5.83;;;1.50;;
34102;SDS011;20381;54.498;18.206;2023-04-25T12:26:53;2.45;;;1.20;;
34102;SDS011;20381;54.498;18.206;2023-04-25T12:29:28;6.53;;;1.70;;
34102;SDS011;20381;54.498;18.206;2023-04-25T12:31:56;2.72;;;1.20;;
34102;SDS011;20381;54.498;18.206;2023-04-25T12:34:23;4.87;;;1.37;;
34102;SDS011;20381;54.498;18.206;2023-04-25T12:36:50;3.75;;;1.57;;
34102;SDS011;20381;54.498;18.206;2023-04-25T12:39:21;4.62;;;1.05;;
34102;SDS011;20381;54.498;18.206;2023-04-25T12:41:50;2.90;;;1.27;;
34102;SDS011;20381;54.498;18.206;2023-04-25T12:44:19;4.40;;;1.22;;
34102;SDS011;20381;54.498;18.206;2023-04-25T12:46:48;3.08;;;1.10;;
34102;SDS011;20381;54.498;18.206;2023-04-25T12:49:17;2.60;;;1.20;;
34102;SDS011;20381;54.498;18.206;2023-04-25T12:51:43;2.92;;;1.60;;
34102;SDS011;20381;54.498;18.206;2023-04-25T12:54:09;3.30;;;1.00;;
34102;SDS011;20381;54.498;18.206;2023-04-25T12:56:36;3.60;;;1.27;;
34102;SDS011;20381;54.498;18.206;2023-04-25T12:59:02;2.90;;;1.20;;
34102;SDS011;20381;54.498;18.206;2023-04-25T13:01:29;3.58;;;1.60;;
34102;SDS011;20381;54.498;18.206;2023-04-25T13:03:56;6.00;;;1.50;;
34102;SDS011;20381;54.498;18.206;2023-04-25T13:06:22;5.42;;;1.30;;
34102;SDS011;20381;54.498;18.206;2023-04-25T13:11:17;4.60;;;1.32;;
34102;SDS011;20381;54.498;18.206;2023-04-25T13:13:44;2.83;;;1.27;;
34102;SDS011;20381;54.498;18.206;2023-04-25T13:16:10;4.45;;;1.50;;
34102;SDS011;20381;54.498;18.206;2023-04-25T13:18:38;3.47;;;1.35;;
34102;SDS011;20381;54.498;18.206;2023-04-25T13:21:06;3.72;;;1.32;;
34102;SDS011;20381;54.498;18.206;2023-04-25T13:23:34;5.05;;;1.20;;
34102;SDS011;20381;54.498;18.206;2023-04-25T13:26:01;7.83;;;2.52;;
34102;SDS011;20381;54.498;18.206;2023-04-25T13:28:29;4.78;;;1.65;;
34102;SDS011;20381;54.498;18.206;2023-04-25T13:30:55;5.75;;;1.52;;
34102;SDS011;20381;54.498;18.206;2023-04-25T13:33:21;5.37;;;1.67;;
34102;SDS011;20381;54.498;18.206;2023-04-25T13:35:48;8.27;;;2.00;;
34102;SDS011;20381;54.498;18.206;2023-04-25T13:38:23;6.00;;;1.70;;
34102;SDS011;20381;54.498;18.206;2023-04-25T13:40:51;6.40;;;2.10;;
34102;SDS011;20381;54.498;18.206;2023-04-25T13:43:18;13.83;;;5.70;;
34102;SDS011;20381;54.498;18.206;2023-04-25T13:45:48;8.43;;;2.02;;
34102;SDS011;20381;54.498;18.206;2023-04-25T13:48:16;4.92;;;2.00;;
34102;SDS011;20381;54.498;18.206;2023-04-25T13:53:11;4.83;;;1.80;;
34102;SDS011;20381;54.498;18.206;2023-04-25T13:55:39;8.30;;;1.92;;
34102;SDS011;20381;54.498;18.206;2023-04-25T13:58:06;5.25;;;2.25;;
34102;SDS011;20381;54.498;18.206;2023-04-25T14:00:36;9.18;;;2.95;;
34102;SDS011;20381;54.498;18.206;2023-04-25T14:03:04;9.98;;;3.40;;
34102;SDS011;20381;54.498;18.206;2023-04-25T14:05:34;8.88;;;2.50;;
34102;SDS011;20381;54.498;18.206;2023-04-25T14:08:08;17.45;;;10.95;;
34102;SDS011;20381;54.498;18.206;2023-04-25T14:10:35;9.25;;;2.72;;
34102;SDS011;20381;54.498;18.206;2023-04-25T14:13:02;8.03;;;2.40;;
34102;SDS011;20381;54.498;18.206;2023-04-25T14:15:33;9.35;;;2.55;;
34102;SDS011;20381;54.498;18.206;2023-04-25T14:17:58;7.87;;;2.55;;
34102;SDS011;20381;54.498;18.206;2023-04-25T14:22:57;10.68;;;2.67;;
34102;SDS011;20381;54.498;18.206;2023-04-25T14:25:22;7.83;;;2.40;;
34102;SDS011;20381;54.498;18.206;2023-04-25T14:27:48;6.95;;;3.20;;
34102;SDS011;20381;54.498;18.206;2023-04-25T14:30:21;8.68;;;3.12;;
34102;SDS011;20381;54.498;18.206;2023-04-25T14:32:49;12.33;;;3.27;;
34102;SDS011;20381;54.498;18.206;2023-04-25T14:35:15;8.95;;;3.22;;
34102;SDS011;20381;54.498;18.206;2023-04-25T14:37:43;6.78;;;2.55;;
34102;SDS011;20381;54.498;18.206;2023-04-25T14:40:09;35.10;;;20.02;;
34102;SDS011;20381;54.498;18.206;2023-04-25T14:42:39;9.60;;;3.67;;
34102;SDS011;20381;54.498;18.206;2023-04-25T14:45:06;7.75;;;2.98;;
34102;SDS011;20381;54.498;18.206;2023-04-25T14:47:36;15.65;;;11.08;;
34102;SDS011;20381;54.498;18.206;2023-04-25T14:50:03;21.20;;;18.98;;
34102;SDS011;20381;54.498;18.206;2023-04-25T14:52:32;23.42;;;20.65;;
34102;SDS011;20381;54.498;18.206;2023-04-25T14:54:59;13.72;;;8.83;;
34102;SDS011;20381;54.498;18.206;2023-04-25T14:57:28;5.70;;;3.30;;
34102;SDS011;20381;54.498;18.206;2023-04-25T14:59:55;9.28;;;3.70;;
34102;SDS011;20381;54.498;18.206;2023-04-25T15:02:21;19.87;;;13.80;;
34102;SDS011;20381;54.498;18.206;2023-04-25T15:04:48;9.05;;;2.98;;
34102;SDS011;20381;54.498;18.206;2023-04-25T15:07:15;8.55;;;3.20;;
34102;SDS011;20381;54.498;18.206;2023-04-25T15:09:41;9.38;;;2.70;;
34102;SDS011;20381;54.498;18.206;2023-04-25T15:12:08;8.38;;;2.47;;
34102;SDS011;20381;54.498;18.206;2023-04-25T15:14:34;7.45;;;2.72;;
34102;SDS011;20381;54.498;18.206;2023-04-25T15:17:02;12.00;;;2.60;;